Aviosuperficie Merlo Romano

IT-0037 · 皮埃蒙特, 意大利

使用的METAR站距离机场34 km。
罗盘
风向 的 Aviosuperficie Merlo Romano 10/28
风: 2 kt, 1 beaufort


2 kt
改变
0 ft 1.000 2.000 3.000 4.000 5.000
Cloud Cloud
FEW 200
Cloud Cloud Cloud Cloud Cloud Cloud
BKN 1.300
METAR LIMA 281250Z VRB02KT 9999 -RA FEW002 BKN013 11/10 Q1018

METAR Aviosuperficie Merlo Romano - IT-0037

Aviosuperficie Merlo Romano是,意大利中的小机场。 该机场位于纬度44,83427和经度7,36465。 该机场有一条跑道: 10/28. 这个机场没有ICAO代码,我们使用IT-0037作为参考。 机场在Milano FIR中。

该航空气象观测是针对Torino-Aeritalia Airport在2024年2月28日 13:50, 当地时间进行的。

机场观察

可变方向的风很小或没有风。

可见度为10 km 或者更多。

有几云在200 ft的高度 和 碎云在1.300 ft的高度。 破损或更高的上限为1.300 ft。

当前天气为光 雨。 温度和风寒是11 °C。 露点为10 °C,相对湿度为94%。 海平面上的气压为1018 hPa (QNH)。

白天

今天,太阳从07:10升起,在18:15降落。 这适用于Aviosuperficie Merlo Romano,世界夏令时可能有所不同。 当地时间与世界标准时间之间的时差为+1 小时。 当前,没有夏令时有效。

公司介绍

我们没有关于这个机场的公司信息。

体会

到Vliegles.nl去找飞行课程,跳伞和其他飞行体验。 浏览页面,了解Aviosuperficie Merlo Romano附近所有可用的活动。 你也可以使用搜索功能来寻找你所在地附近的特定飞行课程、跳伞或其他飞行体验。

跑道

Id 标题 侧风 逆风 侧风 %
10/28 101°-281° 2 kt 98 %

逆风成分最大的方向会被突出显示,并用于横风计算。 这并不一定意味着这个方向在使用。

乌云

200 ft FEW 几云
1.300 ft BKN 碎云

温度 & 天气

天气 光 雨
温度 11 °C
露点 10 °C
相对湿度 94%
Kp-index 1 (0-9)

白天

日出
07:09
中午
12:42
日落
18:14 (3:52)

小工具

你想在你的网站上有一个关于Aviosuperficie Merlo Romano的当前航空天气(METAR)的小部件吗?

显示HTML代码
?>